sensor_id;sensor_type;location;lat;lon;timestamp;pressure;altitude;pressure_sealevel;temperature
12918;BMP180;6526;54.312;13.092;2023-02-28T00:00:41;103553.00;;;3.70
12918;BMP180;6526;54.312;13.092;2023-02-28T00:03:07;103550.00;;;3.70
12918;BMP180;6526;54.312;13.092;2023-02-28T00:05:33;103542.00;;;3.70
12918;BMP180;6526;54.312;13.092;2023-02-28T00:07:59;103533.00;;;3.70
12918;BMP180;6526;54.312;13.092;2023-02-28T00:10:28;103555.00;;;3.70
12918;BMP180;6526;54.312;13.092;2023-02-28T00:12:58;103553.00;;;3.60
12918;BMP180;6526;54.312;13.092;2023-02-28T00:15:25;103545.00;;;3.50
12918;BMP180;6526;54.312;13.092;2023-02-28T00:17:51;103553.00;;;3.40
12918;BMP180;6526;54.312;13.092;2023-02-28T00:20:18;103555.00;;;3.30
12918;BMP180;6526;54.312;13.092;2023-02-28T00:22:46;103558.00;;;3.30
12918;BMP180;6526;54.312;13.092;2023-02-28T00:25:16;103551.00;;;3.30
12918;BMP180;6526;54.312;13.092;2023-02-28T00:27:42;103553.00;;;3.40
12918;BMP180;6526;54.312;13.092;2023-02-28T00:30:13;103553.00;;;3.30
12918;BMP180;6526;54.312;13.092;2023-02-28T00:32:39;103547.00;;;3.20
12918;BMP180;6526;54.312;13.092;2023-02-28T00:35:06;103544.00;;;3.20
12918;BMP180;6526;54.312;13.092;2023-02-28T00:37:33;103544.00;;;3.30
12918;BMP180;6526;54.312;13.092;2023-02-28T00:39:59;103550.00;;;3.20
12918;BMP180;6526;54.312;13.092;2023-02-28T00:42:25;103545.00;;;3.10
12918;BMP180;6526;54.312;13.092;2023-02-28T00:44:51;103560.00;;;3.10
12918;BMP180;6526;54.312;13.092;2023-02-28T00:47:17;103552.00;;;3.10
12918;BMP180;6526;54.312;13.092;2023-02-28T00:49:43;103556.00;;;3.20
12918;BMP180;6526;54.312;13.092;2023-02-28T00:52:09;103560.00;;;3.30
12918;BMP180;6526;54.312;13.092;2023-02-28T00:54:35;103565.00;;;3.40
12918;BMP180;6526;54.312;13.092;2023-02-28T00:57:01;103555.00;;;3.30
12918;BMP180;6526;54.312;13.092;2023-02-28T00:59:28;103556.00;;;3.40
12918;BMP180;6526;54.312;13.092;2023-02-28T01:01:54;103562.00;;;3.40
12918;BMP180;6526;54.312;13.092;2023-02-28T01:04:20;103559.00;;;3.30
12918;BMP180;6526;54.312;13.092;2023-02-28T01:06:46;103555.00;;;3.20
12918;BMP180;6526;54.312;13.092;2023-02-28T01:09:12;103563.00;;;3.10
12918;BMP180;6526;54.312;13.092;2023-02-28T01:11:39;103552.00;;;3.00
12918;BMP180;6526;54.312;13.092;2023-02-28T01:14:08;103552.00;;;3.10
12918;BMP180;6526;54.312;13.092;2023-02-28T01:16:34;103549.00;;;3.10
12918;BMP180;6526;54.312;13.092;2023-02-28T01:19:00;103562.00;;;3.10
12918;BMP180;6526;54.312;13.092;2023-02-28T01:21:26;103550.00;;;3.10
12918;BMP180;6526;54.312;13.092;2023-02-28T01:23:52;103554.00;;;3.10
12918;BMP180;6526;54.312;13.092;2023-02-28T01:26:23;103550.00;;;3.10
12918;BMP180;6526;54.312;13.092;2023-02-28T01:28:51;103551.00;;;3.20
12918;BMP180;6526;54.312;13.092;2023-02-28T01:31:18;103557.00;;;3.10
12918;BMP180;6526;54.312;13.092;2023-02-28T01:33:45;103553.00;;;3.00
12918;BMP180;6526;54.312;13.092;2023-02-28T01:36:20;103560.00;;;3.00
12918;BMP180;6526;54.312;13.092;2023-02-28T01:38:46;103552.00;;;3.00
12918;BMP180;6526;54.312;13.092;2023-02-28T01:46:13;103547.00;;;2.60
12918;BMP180;6526;54.312;13.092;2023-02-28T01:49:00;103550.00;;;2.60
12918;BMP180;6526;54.312;13.092;2023-02-28T01:51:44;103559.00;;;2.60
12918;BMP180;6526;54.312;13.092;2023-02-28T01:54:16;103545.00;;;2.70
12918;BMP180;6526;54.312;13.092;2023-02-28T01:56:56;103546.00;;;2.80
12918;BMP180;6526;54.312;13.092;2023-02-28T01:59:31;103547.00;;;2.90
12918;BMP180;6526;54.312;13.092;2023-02-28T02:01:57;103561.00;;;2.90
12918;BMP180;6526;54.312;13.092;2023-02-28T02:04:27;103551.00;;;2.90
12918;BMP180;6526;54.312;13.092;2023-02-28T02:06:58;103552.00;;;2.90
12918;BMP180;6526;54.312;13.092;2023-02-28T02:09:25;103554.00;;;2.90
12918;BMP180;6526;54.312;13.092;2023-02-28T02:11:51;103543.00;;;2.80
12918;BMP180;6526;54.312;13.092;2023-02-28T02:17:35;103551.00;;;2.70
12918;BMP180;6526;54.312;13.092;2023-02-28T02:21:07;103539.00;;;2.70
12918;BMP180;6526;54.312;13.092;2023-02-28T02:25:54;103553.00;;;2.80
12918;BMP180;6526;54.312;13.092;2023-02-28T02:28:30;103539.00;;;2.80
12918;BMP180;6526;54.312;13.092;2023-02-28T02:45:23;103558.00;;;2.30
12918;BMP180;6526;54.312;13.092;2023-02-28T02:47:49;103552.00;;;2.30
12918;BMP180;6526;54.312;13.092;2023-02-28T02:50:22;103555.00;;;2.30
12918;BMP180;6526;54.312;13.092;2023-02-28T02:52:54;103541.00;;;2.30
12918;BMP180;6526;54.312;13.092;2023-02-28T02:55:23;103565.00;;;2.40
12918;BMP180;6526;54.312;13.092;2023-02-28T02:57:59;103555.00;;;2.40
12918;BMP180;6526;54.312;13.092;2023-02-28T03:00:31;103568.00;;;2.40
12918;BMP180;6526;54.312;13.092;2023-02-28T03:02:59;103566.00;;;2.40
12918;BMP180;6526;54.312;13.092;2023-02-28T03:05:34;103558.00;;;2.50
12918;BMP180;6526;54.312;13.092;2023-02-28T03:08:04;103550.00;;;2.60
12918;BMP180;6526;54.312;13.092;2023-02-28T03:10:35;103547.00;;;2.60
12918;BMP180;6526;54.312;13.092;2023-02-28T03:18:42;103557.00;;;2.60
12918;BMP180;6526;54.312;13.092;2023-02-28T03:21:28;103561.00;;;2.60
12918;BMP180;6526;54.312;13.092;2023-02-28T03:24:04;103549.00;;;2.70
12918;BMP180;6526;54.312;13.092;2023-02-28T03:26:32;103558.00;;;2.60
12918;BMP180;6526;54.312;13.092;2023-02-28T03:29:23;103560.00;;;2.60
12918;BMP180;6526;54.312;13.092;2023-02-28T03:32:20;103564.00;;;2.60
12918;BMP180;6526;54.312;13.092;2023-02-28T03:34:58;103552.00;;;2.60
12918;BMP180;6526;54.312;13.092;2023-02-28T03:37:27;103544.00;;;2.50
12918;BMP180;6526;54.312;13.092;2023-02-28T03:40:09;103542.00;;;2.40
12918;BMP180;6526;54.312;13.092;2023-02-28T03:42:39;103536.00;;;2.30
12918;BMP180;6526;54.312;13.092;2023-02-28T03:45:28;103534.00;;;2.30
12918;BMP180;6526;54.312;13.092;2023-02-28T03:48:01;103541.00;;;2.20
12918;BMP180;6526;54.312;13.092;2023-02-28T03:50:42;103538.00;;;2.20
12918;BMP180;6526;54.312;13.092;2023-02-28T03:53:30;103538.00;;;2.30
12918;BMP180;6526;54.312;13.092;2023-02-28T03:56:17;103546.00;;;2.40
12918;BMP180;6526;54.312;13.092;2023-02-28T04:01:35;103554.00;;;2.30
12918;BMP180;6526;54.312;13.092;2023-02-28T04:04:04;103538.00;;;2.30
12918;BMP180;6526;54.312;13.092;2023-02-28T04:06:32;103536.00;;;2.40
12918;BMP180;6526;54.312;13.092;2023-02-28T04:08:59;103540.00;;;2.40
12918;BMP180;6526;54.312;13.092;2023-02-28T04:11:36;103548.00;;;2.30
12918;BMP180;6526;54.312;13.092;2023-02-28T04:14:06;103541.00;;;2.30
12918;BMP180;6526;54.312;13.092;2023-02-28T04:16:35;103554.00;;;2.20
12918;BMP180;6526;54.312;13.092;2023-02-28T04:19:03;103542.00;;;2.20
12918;BMP180;6526;54.312;13.092;2023-02-28T04:21:32;103547.00;;;2.30
12918;BMP180;6526;54.312;13.092;2023-02-28T04:23:58;103551.00;;;2.20
12918;BMP180;6526;54.312;13.092;2023-02-28T04:26:33;103547.00;;;2.10
12918;BMP180;6526;54.312;13.092;2023-02-28T04:29:00;103557.00;;;2.10
12918;BMP180;6526;54.312;13.092;2023-02-28T04:31:26;103550.00;;;2.00
12918;BMP180;6526;54.312;13.092;2023-02-28T04:33:52;103559.00;;;2.10
12918;BMP180;6526;54.312;13.092;2023-02-28T04:36:18;103538.00;;;2.20
12918;BMP180;6526;54.312;13.092;2023-02-28T04:38:45;103561.00;;;2.30
12918;BMP180;6526;54.312;13.092;2023-02-28T04:41:12;103549.00;;;2.20
12918;BMP180;6526;54.312;13.092;2023-02-28T04:43:39;103551.00;;;2.30
12918;BMP180;6526;54.312;13.092;2023-02-28T04:46:06;103551.00;;;2.20
12918;BMP180;6526;54.312;13.092;2023-02-28T04:48:34;103554.00;;;2.10
12918;BMP180;6526;54.312;13.092;2023-02-28T04:51:06;103555.00;;;2.10
12918;BMP180;6526;54.312;13.092;2023-02-28T04:53:32;103538.00;;;2.20
12918;BMP180;6526;54.312;13.092;2023-02-28T04:55:59;103549.00;;;2.10
12918;BMP180;6526;54.312;13.092;2023-02-28T04:58:25;103547.00;;;2.10
12918;BMP180;6526;54.312;13.092;2023-02-28T05:00:54;103551.00;;;2.00
12918;BMP180;6526;54.312;13.092;2023-02-28T05:03:26;103551.00;;;2.00
12918;BMP180;6526;54.312;13.092;2023-02-28T05:05:52;103552.00;;;1.90
12918;BMP180;6526;54.312;13.092;2023-02-28T05:08:18;103545.00;;;1.90
12918;BMP180;6526;54.312;13.092;2023-02-28T05:10:44;103566.00;;;1.90
12918;BMP180;6526;54.312;13.092;2023-02-28T05:13:12;103559.00;;;2.00
12918;BMP180;6526;54.312;13.092;2023-02-28T05:15:38;103551.00;;;2.10
12918;BMP180;6526;54.312;13.092;2023-02-28T05:18:04;103552.00;;;2.10
12918;BMP180;6526;54.312;13.092;2023-02-28T05:20:30;103556.00;;;2.10
12918;BMP180;6526;54.312;13.092;2023-02-28T05:22:58;103551.00;;;2.10
12918;BMP180;6526;54.312;13.092;2023-02-28T05:25:25;103551.00;;;2.10
12918;BMP180;6526;54.312;13.092;2023-02-28T05:27:51;103548.00;;;2.20
12918;BMP180;6526;54.312;13.092;2023-02-28T05:30:17;103551.00;;;2.20
12918;BMP180;6526;54.312;13.092;2023-02-28T05:32:43;103553.00;;;2.20
12918;BMP180;6526;54.312;13.092;2023-02-28T05:35:10;103558.00;;;2.20
12918;BMP180;6526;54.312;13.092;2023-02-28T05:37:37;103557.00;;;2.20
12918;BMP180;6526;54.312;13.092;2023-02-28T05:40:05;103563.00;;;2.10
12918;BMP180;6526;54.312;13.092;2023-02-28T05:42:41;103565.00;;;2.00
12918;BMP180;6526;54.312;13.092;2023-02-28T05:45:08;103568.00;;;2.00
12918;BMP180;6526;54.312;13.092;2023-02-28T05:47:34;103568.00;;;2.00
12918;BMP180;6526;54.312;13.092;2023-02-28T05:50:01;103556.00;;;2.00
12918;BMP180;6526;54.312;13.092;2023-02-28T05:52:28;103563.00;;;1.90
12918;BMP180;6526;54.312;13.092;2023-02-28T05:54:55;103563.00;;;1.90
12918;BMP180;6526;54.312;13.092;2023-02-28T05:57:22;103571.00;;;1.90
12918;BMP180;6526;54.312;13.092;2023-02-28T05:59:48;103568.00;;;1.90
12918;BMP180;6526;54.312;13.092;2023-02-28T06:02:16;103571.00;;;2.00
12918;BMP180;6526;54.312;13.092;2023-02-28T06:04:43;103564.00;;;2.00
12918;BMP180;6526;54.312;13.092;2023-02-28T06:07:10;103568.00;;;1.90
12918;BMP180;6526;54.312;13.092;2023-02-28T06:09:37;103567.00;;;1.80
12918;BMP180;6526;54.312;13.092;2023-02-28T06:12:05;103576.00;;;1.70
12918;BMP180;6526;54.312;13.092;2023-02-28T06:14:33;103564.00;;;1.70
12918;BMP180;6526;54.312;13.092;2023-02-28T06:17:00;103574.00;;;1.80
12918;BMP180;6526;54.312;13.092;2023-02-28T06:19:27;103566.00;;;1.80
12918;BMP180;6526;54.312;13.092;2023-02-28T06:21:55;103573.00;;;1.70
12918;BMP180;6526;54.312;13.092;2023-02-28T06:24:24;103577.00;;;1.70
12918;BMP180;6526;54.312;13.092;2023-02-28T06:26:53;103573.00;;;1.60
12918;BMP180;6526;54.312;13.092;2023-02-28T06:29:19;103568.00;;;1.50
12918;BMP180;6526;54.312;13.092;2023-02-28T06:31:46;103573.00;;;1.50
12918;BMP180;6526;54.312;13.092;2023-02-28T06:34:13;103574.00;;;1.50
12918;BMP180;6526;54.312;13.092;2023-02-28T06:36:41;103580.00;;;1.50
12918;BMP180;6526;54.312;13.092;2023-02-28T06:39:08;103573.00;;;1.60
12918;BMP180;6526;54.312;13.092;2023-02-28T06:41:35;103578.00;;;1.70
12918;BMP180;6526;54.312;13.092;2023-02-28T06:44:04;103584.00;;;1.60
12918;BMP180;6526;54.312;13.092;2023-02-28T06:46:31;103586.00;;;1.70
12918;BMP180;6526;54.312;13.092;2023-02-28T06:48:58;103590.00;;;1.70
12918;BMP180;6526;54.312;13.092;2023-02-28T06:51:24;103597.00;;;1.90
12918;BMP180;6526;54.312;13.092;2023-02-28T06:53:51;103602.00;;;2.00
12918;BMP180;6526;54.312;13.092;2023-02-28T06:56:17;103604.00;;;2.00
12918;BMP180;6526;54.312;13.092;2023-02-28T06:58:48;103595.00;;;2.00
12918;BMP180;6526;54.312;13.092;2023-02-28T07:01:14;103601.00;;;2.10
12918;BMP180;6526;54.312;13.092;2023-02-28T07:03:40;103609.00;;;2.00
12918;BMP180;6526;54.312;13.092;2023-02-28T07:06:07;103614.00;;;2.20
12918;BMP180;6526;54.312;13.092;2023-02-28T07:08:34;103607.00;;;2.50
12918;BMP180;6526;54.312;13.092;2023-02-28T07:11:01;103611.00;;;2.70
12918;BMP180;6526;54.312;13.092;2023-02-28T07:13:27;103612.00;;;2.80
12918;BMP180;6526;54.312;13.092;2023-02-28T07:16:02;103599.00;;;2.80
12918;BMP180;6526;54.312;13.092;2023-02-28T07:18:28;103600.00;;;3.30
12918;BMP180;6526;54.312;13.092;2023-02-28T07:20:54;103612.00;;;3.60
12918;BMP180;6526;54.312;13.092;2023-02-28T07:23:21;103604.00;;;3.70
12918;BMP180;6526;54.312;13.092;2023-02-28T07:25:47;103602.00;;;3.90
12918;BMP180;6526;54.312;13.092;2023-02-28T07:28:14;103599.00;;;4.30
12918;BMP180;6526;54.312;13.092;2023-02-28T07:30:41;103613.00;;;4.80
12918;BMP180;6526;54.312;13.092;2023-02-28T07:33:08;103594.00;;;5.20
12918;BMP180;6526;54.312;13.092;2023-02-28T07:35:34;103612.00;;;5.50
12918;BMP180;6526;54.312;13.092;2023-02-28T07:38:01;103601.00;;;5.60
12918;BMP180;6526;54.312;13.092;2023-02-28T07:40:27;103605.00;;;5.40
12918;BMP180;6526;54.312;13.092;2023-02-28T07:42:53;103612.00;;;5.20
12918;BMP180;6526;54.312;13.092;2023-02-28T07:45:19;103611.00;;;5.10
12918;BMP180;6526;54.312;13.092;2023-02-28T07:47:45;103603.00;;;5.30
12918;BMP180;6526;54.312;13.092;2023-02-28T07:50:14;103610.00;;;5.40
12918;BMP180;6526;54.312;13.092;2023-02-28T07:52:40;103608.00;;;5.50
12918;BMP180;6526;54.312;13.092;2023-02-28T07:55:09;103611.00;;;5.70
12918;BMP180;6526;54.312;13.092;2023-02-28T07:57:35;103630.00;;;5.90
12918;BMP180;6526;54.312;13.092;2023-02-28T08:00:05;103603.00;;;6.30
12918;BMP180;6526;54.312;13.092;2023-02-28T08:02:32;103623.00;;;6.40
12918;BMP180;6526;54.312;13.092;2023-02-28T08:04:58;103606.00;;;6.40
12918;BMP180;6526;54.312;13.092;2023-02-28T08:07:25;103625.00;;;6.40
12918;BMP180;6526;54.312;13.092;2023-02-28T08:09:51;103617.00;;;6.60
12918;BMP180;6526;54.312;13.092;2023-02-28T08:12:17;103618.00;;;6.90
12918;BMP180;6526;54.312;13.092;2023-02-28T08:14:43;103620.00;;;6.90
12918;BMP180;6526;54.312;13.092;2023-02-28T08:17:10;103622.00;;;6.80
12918;BMP180;6526;54.312;13.092;2023-02-28T08:19:36;103620.00;;;6.90
12918;BMP180;6526;54.312;13.092;2023-02-28T08:22:03;103623.00;;;7.10
12918;BMP180;6526;54.312;13.092;2023-02-28T08:24:29;103626.00;;;7.40
12918;BMP180;6526;54.312;13.092;2023-02-28T08:26:55;103622.00;;;7.80
12918;BMP180;6526;54.312;13.092;2023-02-28T08:29:21;103617.00;;;8.00
12918;BMP180;6526;54.312;13.092;2023-02-28T08:31:48;103616.00;;;8.30
12918;BMP180;6526;54.312;13.092;2023-02-28T08:34:15;103617.00;;;8.50
12918;BMP180;6526;54.312;13.092;2023-02-28T08:36:41;103624.00;;;8.60
12918;BMP180;6526;54.312;13.092;2023-02-28T08:39:09;103616.00;;;8.80
12918;BMP180;6526;54.312;13.092;2023-02-28T08:41:35;103614.00;;;9.10
12918;BMP180;6526;54.312;13.092;2023-02-28T08:44:01;103622.00;;;9.30
12918;BMP180;6526;54.312;13.092;2023-02-28T08:46:27;103613.00;;;9.50
12918;BMP180;6526;54.312;13.092;2023-02-28T08:48:55;103611.00;;;9.50
12918;BMP180;6526;54.312;13.092;2023-02-28T08:51:22;103601.00;;;9.30
12918;BMP180;6526;54.312;13.092;2023-02-28T08:53:53;103615.00;;;9.30
12918;BMP180;6526;54.312;13.092;2023-02-28T08:56:19;103602.00;;;9.70
12918;BMP180;6526;54.312;13.092;2023-02-28T08:58:47;103608.00;;;9.70
12918;BMP180;6526;54.312;13.092;2023-02-28T09:01:19;103613.00;;;9.60
12918;BMP180;6526;54.312;13.092;2023-02-28T09:03:47;103614.00;;;10.00
12918;BMP180;6526;54.312;13.092;2023-02-28T09:06:15;103607.00;;;10.20
12918;BMP180;6526;54.312;13.092;2023-02-28T09:08:42;103625.00;;;10.40
12918;BMP180;6526;54.312;13.092;2023-02-28T09:11:09;103613.00;;;10.50
12918;BMP180;6526;54.312;13.092;2023-02-28T09:13:36;103621.00;;;10.30
12918;BMP180;6526;54.312;13.092;2023-02-28T09:16:04;103619.00;;;10.20
12918;BMP180;6526;54.312;13.092;2023-02-28T09:18:30;103621.00;;;10.20
12918;BMP180;6526;54.312;13.092;2023-02-28T09:20:57;103630.00;;;10.10
12918;BMP180;6526;54.312;13.092;2023-02-28T09:23:24;103631.00;;;10.30
12918;BMP180;6526;54.312;13.092;2023-02-28T09:25:52;103628.00;;;10.40
12918;BMP180;6526;54.312;13.092;2023-02-28T09:28:19;103628.00;;;10.30
12918;BMP180;6526;54.312;13.092;2023-02-28T09:30:49;103622.00;;;10.20
12918;BMP180;6526;54.312;13.092;2023-02-28T09:33:17;103623.00;;;10.20
12918;BMP180;6526;54.312;13.092;2023-02-28T09:35:43;103640.00;;;10.60
12918;BMP180;6526;54.312;13.092;2023-02-28T09:38:10;103642.00;;;11.20
12918;BMP180;6526;54.312;13.092;2023-02-28T09:40:53;103645.00;;;11.30
12918;BMP180;6526;54.312;13.092;2023-02-28T09:43:22;103639.00;;;11.50
12918;BMP180;6526;54.312;13.092;2023-02-28T09:48:51;103637.00;;;11.50
12918;BMP180;6526;54.312;13.092;2023-02-28T09:51:27;103645.00;;;11.60
12918;BMP180;6526;54.312;13.092;2023-02-28T09:53:53;103645.00;;;11.80
12918;BMP180;6526;54.312;13.092;2023-02-28T09:56:35;103653.00;;;11.60
12918;BMP180;6526;54.312;13.092;2023-02-28T10:04:35;103643.00;;;12.00
12918;BMP180;6526;54.312;13.092;2023-02-28T10:07:32;103645.00;;;12.00
12918;BMP180;6526;54.312;13.092;2023-02-28T10:09:55;103646.00;;;11.90
12918;BMP180;6526;54.312;13.092;2023-02-28T10:12:22;103644.00;;;12.10
12918;BMP180;6526;54.312;13.092;2023-02-28T10:14:51;103655.00;;;11.80
12918;BMP180;6526;54.312;13.092;2023-02-28T10:17:27;103655.00;;;11.90
12918;BMP180;6526;54.312;13.092;2023-02-28T10:20:03;103642.00;;;12.20
12918;BMP180;6526;54.312;13.092;2023-02-28T10:25:18;103637.00;;;12.30
12918;BMP180;6526;54.312;13.092;2023-02-28T10:27:44;103639.00;;;12.30
12918;BMP180;6526;54.312;13.092;2023-02-28T10:30:11;103629.00;;;12.40
12918;BMP180;6526;54.312;13.092;2023-02-28T10:32:49;103637.00;;;12.40
12918;BMP180;6526;54.312;13.092;2023-02-28T10:35:18;103634.00;;;12.40
12918;BMP180;6526;54.312;13.092;2023-02-28T10:37:47;103645.00;;;12.00
12918;BMP180;6526;54.312;13.092;2023-02-28T10:43:03;103636.00;;;11.90
12918;BMP180;6526;54.312;13.092;2023-02-28T10:45:35;103638.00;;;12.20
12918;BMP180;6526;54.312;13.092;2023-02-28T10:50:51;103635.00;;;12.60
12918;BMP180;6526;54.312;13.092;2023-02-28T11:01:44;103627.00;;;12.70
12918;BMP180;6526;54.312;13.092;2023-02-28T11:04:33;103636.00;;;13.30
12918;BMP180;6526;54.312;13.092;2023-02-28T11:07:02;103626.00;;;13.10
12918;BMP180;6526;54.312;13.092;2023-02-28T11:09:39;103626.00;;;13.00
12918;BMP180;6526;54.312;13.092;2023-02-28T11:12:07;103632.00;;;13.00
12918;BMP180;6526;54.312;13.092;2023-02-28T11:14:46;103624.00;;;13.00
12918;BMP180;6526;54.312;13.092;2023-02-28T11:17:25;103621.00;;;12.50
12918;BMP180;6526;54.312;13.092;2023-02-28T11:19:55;103615.00;;;12.60
12918;BMP180;6526;54.312;13.092;2023-02-28T11:22:28;103623.00;;;12.80
12918;BMP180;6526;54.312;13.092;2023-02-28T11:24:57;103613.00;;;13.20
12918;BMP180;6526;54.312;13.092;2023-02-28T11:29:55;103609.00;;;13.00
12918;BMP180;6526;54.312;13.092;2023-02-28T11:32:22;103603.00;;;12.80
12918;BMP180;6526;54.312;13.092;2023-02-28T11:37:38;103600.00;;;12.90
12918;BMP180;6526;54.312;13.092;2023-02-28T11:40:15;103598.00;;;13.20
12918;BMP180;6526;54.312;13.092;2023-02-28T11:42:56;103586.00;;;12.80
12918;BMP180;6526;54.312;13.092;2023-02-28T11:48:09;103590.00;;;12.50
12918;BMP180;6526;54.312;13.092;2023-02-28T11:50:57;103588.00;;;13.10
12918;BMP180;6526;54.312;13.092;2023-02-28T11:54:02;103594.00;;;13.20
12918;BMP180;6526;54.312;13.092;2023-02-28T11:56:41;103589.00;;;13.10
12918;BMP180;6526;54.312;13.092;2023-02-28T12:02:21;103593.00;;;13.60
12918;BMP180;6526;54.312;13.092;2023-02-28T12:10:25;103580.00;;;13.40
12918;BMP180;6526;54.312;13.092;2023-02-28T12:12:59;103574.00;;;13.10
12918;BMP180;6526;54.312;13.092;2023-02-28T12:18:50;103568.00;;;13.40
12918;BMP180;6526;54.312;13.092;2023-02-28T12:27:05;103561.00;;;13.10
12918;BMP180;6526;54.312;13.092;2023-02-28T12:29:42;103563.00;;;12.80
12918;BMP180;6526;54.312;13.092;2023-02-28T12:32:20;103567.00;;;12.60
12918;BMP180;6526;54.312;13.092;2023-02-28T12:35:03;103555.00;;;12.50
12918;BMP180;6526;54.312;13.092;2023-02-28T12:37:47;103556.00;;;12.70
12918;BMP180;6526;54.312;13.092;2023-02-28T12:40:23;103564.00;;;12.70
12918;BMP180;6526;54.312;13.092;2023-02-28T12:43:02;103562.00;;;12.70
12918;BMP180;6526;54.312;13.092;2023-02-28T12:45:50;103565.00;;;12.50
12918;BMP180;6526;54.312;13.092;2023-02-28T12:48:42;103565.00;;;12.90
12918;BMP180;6526;54.312;13.092;2023-02-28T12:51:09;103554.00;;;12.90
12918;BMP180;6526;54.312;13.092;2023-02-28T12:59:23;103569.00;;;12.50
12918;BMP180;6526;54.312;13.092;2023-02-28T13:02:09;103560.00;;;12.80
12918;BMP180;6526;54.312;13.092;2023-02-28T13:10:12;103556.00;;;12.20
12918;BMP180;6526;54.312;13.092;2023-02-28T13:12:52;103562.00;;;12.00
12918;BMP180;6526;54.312;13.092;2023-02-28T13:15:21;103565.00;;;11.90
12918;BMP180;6526;54.312;13.092;2023-02-28T13:17:51;103556.00;;;12.00
12918;BMP180;6526;54.312;13.092;2023-02-28T13:20:23;103566.00;;;12.10
12918;BMP180;6526;54.312;13.092;2023-02-28T13:22:52;103562.00;;;12.00
12918;BMP180;6526;54.312;13.092;2023-02-28T13:27:49;103570.00;;;12.10
12918;BMP180;6526;54.312;13.092;2023-02-28T13:33:34;103557.00;;;12.30
12918;BMP180;6526;54.312;13.092;2023-02-28T13:38:52;103559.00;;;12.40
12918;BMP180;6526;54.312;13.092;2023-02-28T13:44:04;103533.00;;;12.20
12918;BMP180;6526;54.312;13.092;2023-02-28T13:46:32;103531.00;;;12.10
12918;BMP180;6526;54.312;13.092;2023-02-28T14:03:13;103502.00;;;11.90
12918;BMP180;6526;54.312;13.092;2023-02-28T14:05:42;103495.00;;;11.70
12918;BMP180;6526;54.312;13.092;2023-02-28T14:10:48;103486.00;;;11.60
12918;BMP180;6526;54.312;13.092;2023-02-28T14:16:11;103493.00;;;12.00
12918;BMP180;6526;54.312;13.092;2023-02-28T14:18:55;103478.00;;;11.70
12918;BMP180;6526;54.312;13.092;2023-02-28T14:21:33;103485.00;;;11.60
12918;BMP180;6526;54.312;13.092;2023-02-28T14:32:47;103485.00;;;11.20
12918;BMP180;6526;54.312;13.092;2023-02-28T14:38:18;103478.00;;;11.20
12918;BMP180;6526;54.312;13.092;2023-02-28T14:40:45;103467.00;;;11.10
12918;BMP180;6526;54.312;13.092;2023-02-28T14:43:28;103451.00;;;11.10
12918;BMP180;6526;54.312;13.092;2023-02-28T14:45:57;103479.00;;;11.10
12918;BMP180;6526;54.312;13.092;2023-02-28T14:48:24;103481.00;;;11.20
12918;BMP180;6526;54.312;13.092;2023-02-28T14:50:54;103481.00;;;11.20
12918;BMP180;6526;54.312;13.092;2023-02-28T14:53:24;103478.00;;;11.10
12918;BMP180;6526;54.312;13.092;2023-02-28T14:55:51;103484.00;;;11.20
12918;BMP180;6526;54.312;13.092;2023-02-28T14:58:25;103482.00;;;11.10
12918;BMP180;6526;54.312;13.092;2023-02-28T15:00:54;103476.00;;;11.00
12918;BMP180;6526;54.312;13.092;2023-02-28T15:03:27;103478.00;;;10.90
12918;BMP180;6526;54.312;13.092;2023-02-28T15:05:59;103487.00;;;10.80
12918;BMP180;6526;54.312;13.092;2023-02-28T15:08:26;103487.00;;;10.70
12918;BMP180;6526;54.312;13.092;2023-02-28T15:13:21;103485.00;;;10.60
12918;BMP180;6526;54.312;13.092;2023-02-28T15:15:52;103470.00;;;10.40
12918;BMP180;6526;54.312;13.092;2023-02-28T15:18:38;103475.00;;;10.20
12918;BMP180;6526;54.312;13.092;2023-02-28T15:21:18;103475.00;;;10.30
12918;BMP180;6526;54.312;13.092;2023-02-28T15:23:49;103474.00;;;10.40
12918;BMP180;6526;54.312;13.092;2023-02-28T15:26:19;103465.00;;;10.40
12918;BMP180;6526;54.312;13.092;2023-02-28T15:28:46;103465.00;;;10.50
12918;BMP180;6526;54.312;13.092;2023-02-28T15:31:31;103468.00;;;10.20
12918;BMP180;6526;54.312;13.092;2023-02-28T15:34:03;103468.00;;;10.10
12918;BMP180;6526;54.312;13.092;2023-02-28T15:36:32;103458.00;;;10.20
12918;BMP180;6526;54.312;13.092;2023-02-28T15:39:00;103462.00;;;10.10
12918;BMP180;6526;54.312;13.092;2023-02-28T15:41:35;103460.00;;;10.00
12918;BMP180;6526;54.312;13.092;2023-02-28T15:44:26;103458.00;;;10.10
12918;BMP180;6526;54.312;13.092;2023-02-28T15:49:24;103453.00;;;10.10
12918;BMP180;6526;54.312;13.092;2023-02-28T15:51:52;103465.00;;;10.30
12918;BMP180;6526;54.312;13.092;2023-02-28T15:54:23;103449.00;;;10.00
12918;BMP180;6526;54.312;13.092;2023-02-28T15:56:57;103456.00;;;10.00
12918;BMP180;6526;54.312;13.092;2023-02-28T15:59:27;103439.00;;;9.80
12918;BMP180;6526;54.312;13.092;2023-02-28T16:02:13;103453.00;;;9.70
12918;BMP180;6526;54.312;13.092;2023-02-28T16:05:25;103454.00;;;9.80
12918;BMP180;6526;54.312;13.092;2023-02-28T16:07:59;103442.00;;;9.70
12918;BMP180;6526;54.312;13.092;2023-02-28T16:10:27;103455.00;;;9.60
12918;BMP180;6526;54.312;13.092;2023-02-28T16:12:57;103451.00;;;9.60
12918;BMP180;6526;54.312;13.092;2023-02-28T16:15:37;103440.00;;;9.50
12918;BMP180;6526;54.312;13.092;2023-02-28T16:18:10;103441.00;;;9.40
12918;BMP180;6526;54.312;13.092;2023-02-28T16:20:37;103443.00;;;9.40
12918;BMP180;6526;54.312;13.092;2023-02-28T16:23:03;103438.00;;;9.50
12918;BMP180;6526;54.312;13.092;2023-02-28T16:25:42;103442.00;;;9.50
12918;BMP180;6526;54.312;13.092;2023-02-28T16:28:18;103438.00;;;9.40
12918;BMP180;6526;54.312;13.092;2023-02-28T16:30:45;103446.00;;;9.40
12918;BMP180;6526;54.312;13.092;2023-02-28T16:33:11;103439.00;;;9.40
12918;BMP180;6526;54.312;13.092;2023-02-28T16:35:37;103453.00;;;9.40
12918;BMP180;6526;54.312;13.092;2023-02-28T16:38:04;103453.00;;;9.40
12918;BMP180;6526;54.312;13.092;2023-02-28T16:40:34;103453.00;;;9.40
12918;BMP180;6526;54.312;13.092;2023-02-28T16:43:01;103456.00;;;9.40
12918;BMP180;6526;54.312;13.092;2023-02-28T16:45:30;103455.00;;;9.40